Time;durP1;ratioP1;P1;durP2;ratioP2;P2;SDS_P1;SDS_P2;PMS_P1;PMS_P2;Temp;Humidity;BMP_temperature;BMP_pressure;BME280_temperature;BME280_humidity;BME280_pressure;Samples;Min_cycle;Max_cycle;Signal;HPM_P1;HPM_P2
2023/01/21 00:01:44;;;;;;;6.40;3.58;;;;;;;4.34;79.62;99004.47;4943117;28;20048;-94
2023/01/21 00:04:10;;;;;;;5.10;3.33;;;;;;;4.23;79.37;99002.63;4926027;29;20047;-94
2023/01/21 00:06:36;;;;;;;7.55;3.88;;;;;;;4.19;79.36;98999.66;4913975;28;20461;-94
2023/01/21 00:09:02;;;;;;;6.43;4.20;;;;;;;4.36;79.60;99029.03;4937097;28;20544;-94
2023/01/21 00:11:28;;;;;;;5.93;3.90;;;;;;;4.35;80.06;99037.25;4945853;28;20425;-94
2023/01/21 00:13:55;;;;;;;7.57;4.18;;;;;;;4.19;79.83;99015.66;4924615;29;20039;-94
2023/01/21 00:16:21;;;;;;;6.10;3.90;;;;;;;3.97;79.33;98996.81;4926781;29;20035;-94
2023/01/21 00:18:49;;;;;;;8.27;4.63;;;;;;;3.91;80.02;99002.25;4910192;29;20043;-94
2023/01/21 00:21:15;;;;;;;10.57;4.88;;;;;;;4.02;79.71;99015.53;4925713;29;20046;-94
2023/01/21 00:23:40;;;;;;;6.45;3.92;;;;;;;4.13;79.90;99016.59;4925533;29;20035;-94
2023/01/21 00:26:07;;;;;;;6.10;3.88;;;;;;;4.02;79.42;98986.25;4909582;29;20039;-94
2023/01/21 00:28:33;;;;;;;6.40;3.90;;;;;;;4.18;79.54;99019.34;4907782;29;20050;-94
2023/01/21 00:31:00;;;;;;;6.90;5.05;;;;;;;4.01;79.95;98995.28;4909922;29;20039;-94
2023/01/21 00:33:26;;;;;;;8.27;4.20;;;;;;;3.98;80.67;99005.59;4909620;29;20066;-94
2023/01/21 00:36:12;;;;;;;8.75;4.13;;;;;;;4.09;79.40;99018.09;4910011;29;20090;-94
2023/01/21 00:38:38;;;;;;;6.70;3.63;;;;;;;4.02;79.88;99014.75;4941723;29;20525;-94
2023/01/21 00:41:08;;;;;;;5.25;3.13;;;;;;;3.97;79.65;98998.66;4910070;29;20043;-94
2023/01/21 00:43:35;;;;;;;5.90;3.85;;;;;;;3.99;80.36;99009.91;4925640;29;20042;-94
2023/01/21 00:46:00;;;;;;;5.57;3.80;;;;;;;4.04;79.78;99015.31;4924225;29;20157;-95
2023/01/21 00:48:27;;;;;;;8.75;4.65;;;;;;;4.06;79.95;99015.88;4925158;29;20035;-94
2023/01/21 00:50:54;;;;;;;5.93;3.90;;;;;;;3.82;80.09;98999.16;4925363;29;20195;-93
2023/01/21 00:53:21;;;;;;;5.82;4.13;;;;;;;3.78;80.83;98996.13;4922365;28;20047;-94
2023/01/21 00:55:47;;;;;;;7.20;4.55;;;;;;;3.76;80.41;99019.53;4922620;29;20047;-94
2023/01/21 00:58:12;;;;;;;7.78;4.45;;;;;;;3.74;80.26;99026.13;4902972;29;20047;-94
2023/01/21 01:00:37;;;;;;;6.03;3.83;;;;;;;3.81;80.33;99011.63;4924875;29;20039;-94
2023/01/21 01:03:03;;;;;;;5.63;3.40;;;;;;;3.88;79.26;98989.41;4906566;29;20039;-94
2023/01/21 01:05:28;;;;;;;7.70;4.05;;;;;;;3.73;80.19;99011.19;4912040;29;20031;-94
2023/01/21 01:07:54;;;;;;;6.70;3.90;;;;;;;3.79;80.72;99031.56;4906561;29;20039;-94
2023/01/21 01:10:19;;;;;;;5.22;3.50;;;;;;;3.79;80.35;99040.34;4911068;29;20039;-94
2023/01/21 01:12:45;;;;;;;6.05;3.30;;;;;;;3.74;80.16;99050.91;4908969;29;20118;-94
2023/01/21 01:15:10;;;;;;;4.82;3.50;;;;;;;3.71;80.15;99035.38;4908640;29;20031;-94
2023/01/21 01:17:36;;;;;;;5.78;3.58;;;;;;;3.85;79.11;99027.97;4921923;29;20466;-94
2023/01/21 01:20:01;;;;;;;5.03;3.63;;;;;;;3.89;79.59;99030.97;4891009;29;20091;-94
2023/01/21 01:22:27;;;;;;;6.30;3.88;;;;;;;3.77;80.00;99020.31;4889689;29;20039;-94
2023/01/21 01:24:52;;;;;;;6.93;4.10;;;;;;;3.68;80.09;99003.09;4889837;29;20031;-94
2023/01/21 01:27:18;;;;;;;7.07;4.45;;;;;;;3.63;80.04;99004.59;4890708;29;20043;-94
2023/01/21 01:29:43;;;;;;;6.80;3.60;;;;;;;3.72;79.31;99028.22;4890763;29;20036;-94
2023/01/21 01:32:09;;;;;;;6.35;3.28;;;;;;;3.58;78.80;99035.63;4890316;29;20043;-94
2023/01/21 01:34:35;;;;;;;5.72;3.22;;;;;;;3.37;79.50;99018.34;4890092;29;20499;-94
2023/01/21 01:37:01;;;;;;;5.15;3.35;;;;;;;3.43;79.30;99028.88;4890526;29;20060;-94
2023/01/21 01:39:27;;;;;;;5.68;3.47;;;;;;;3.47;78.96;99023.13;4889790;29;20100;-94
2023/01/21 01:41:52;;;;;;;4.95;3.10;;;;;;;3.31;79.42;99006.78;4899075;29;20059;-95
2023/01/21 01:44:55;;;;;;;3.83;2.63;;;;;;;3.58;79.36;99035.63;4921809;29;20035;-94
2023/01/21 01:47:24;;;;;;;4.78;3.25;;;;;;;3.35;79.14;99018.59;4925893;29;20090;-94
2023/01/21 01:49:49;;;;;;;6.18;2.55;;;;;;;3.44;79.36;99033.19;4921299;29;20506;-94
2023/01/21 01:52:17;;;;;;;4.05;2.47;;;;;;;3.45;79.08;99020.69;4904340;29;20046;-94
2023/01/21 01:54:46;;;;;;;4.07;2.63;;;;;;;3.47;79.77;99037.22;4905309;29;20034;-94
2023/01/21 01:57:12;;;;;;;7.28;3.40;;;;;;;3.24;80.39;99011.41;4917187;29;20058;-94
2023/01/21 01:59:38;;;;;;;4.35;2.80;;;;;;;3.36;79.23;98998.09;4924297;29;20500;-95
2023/01/21 02:02:05;;;;;;;4.63;3.00;;;;;;;3.34;79.46;99006.34;4909505;29;20043;-94
2023/01/21 02:04:33;;;;;;;5.65;2.65;;;;;;;3.20;80.00;98983.66;4924261;29;20062;-94
2023/01/21 02:06:59;;;;;;;3.10;2.08;;;;;;;3.23;79.68;98975.19;4909191;29;20101;-95
2023/01/21 02:09:28;;;;;;;3.40;2.38;;;;;;;3.57;78.63;99002.88;4925103;29;20099;-94
2023/01/21 02:11:57;;;;;;;4.50;2.95;;;;;;;3.56;78.59;99006.56;4925608;29;20121;-94
2023/01/21 02:14:22;;;;;;;3.97;2.78;;;;;;;3.34;78.60;98997.53;4924236;29;20473;-94
2023/01/21 02:17:25;;;;;;;4.72;2.97;;;;;;;3.42;79.23;99024.63;4908779;29;20042;-93
2023/01/21 02:19:51;;;;;;;4.18;2.58;;;;;;;3.44;78.88;99016.38;4941501;28;20035;-94
2023/01/21 02:22:52;;;;;;;4.18;2.63;;;;;;;3.31;79.32;98998.78;4947830;29;20039;-94
2023/01/21 02:25:20;;;;;;;3.72;2.40;;;;;;;3.52;79.27;99017.91;4912562;29;20039;-94
2023/01/21 02:28:10;;;;;;;5.10;2.85;;;;;;;3.59;78.85;99011.44;4949532;29;20525;-94
2023/01/21 02:31:04;;;;;;;5.50;3.08;;;;;;;3.67;78.02;99014.78;4941714;29;20063;-94
2023/01/21 02:33:37;;;;;;;6.13;2.92;;;;;;;3.74;78.43;99008.28;4953000;28;20053;-94
2023/01/21 02:36:33;;;;;;;4.03;2.92;;;;;;;3.79;77.99;98997.75;4949719;28;20042;-94
2023/01/21 02:39:23;;;;;;;5.70;2.90;;;;;;;3.84;77.38;99000.53;4958435;28;20035;-93
2023/01/21 02:41:59;;;;;;;7.35;3.88;;;;;;;3.78;77.14;98995.34;4942658;28;20067;-93
2023/01/21 02:44:55;;;;;;;9.68;4.15;;;;;;;3.74;77.42;98978.22;4942971;28;20434;-93
2023/01/21 02:47:50;;;;;;;10.77;4.18;;;;;;;3.74;77.80;98991.53;4953026;29;20121;-93
2023/01/21 02:50:22;;;;;;;10.48;5.25;;;;;;;3.73;77.51;98987.22;4934296;29;20083;-93
2023/01/21 02:52:55;;;;;;;20.88;5.75;;;;;;;3.71;77.22;98974.13;4936961;29;20070;-94
2023/01/21 02:55:21;;;;;;;11.13;4.97;;;;;;;3.57;77.51;98946.97;4941295;29;20069;-94
2023/01/21 02:57:48;;;;;;;10.45;5.15;;;;;;;3.63;78.00;98966.50;4932695;29;20047;-93
2023/01/21 03:00:18;;;;;;;11.93;4.63;;;;;;;3.62;77.74;98956.91;4941558;29;20047;-94
2023/01/21 03:02:56;;;;;;;14.68;6.50;;;;;;;3.59;77.69;98960.03;4953836;29;20039;-93
2023/01/21 03:05:27;;;;;;;13.18;5.85;;;;;;;3.66;78.53;98967.91;4957488;29;20048;-94
2023/01/21 03:08:05;;;;;;;12.50;5.60;;;;;;;3.46;77.96;98953.09;4957241;29;20078;-93
2023/01/21 03:10:35;;;;;;;16.30;7.00;;;;;;;3.41;78.93;98939.69;4926984;29;20267;-94
2023/01/21 03:13:06;;;;;;;18.98;5.15;;;;;;;3.51;79.16;98976.34;4942797;29;20042;-93
2023/01/21 03:18:29;;;;;;;18.65;4.70;;;;;;;3.19;80.03;98974.03;4945236;29;20058;-93
2023/01/21 03:21:06;;;;;;;14.63;5.75;;;;;;;2.92;80.86;98955.03;4927142;29;20039;-93
2023/01/21 03:23:35;;;;;;;15.23;6.68;;;;;;;3.10;79.88;98949.63;4927431;29;20126;-93
2023/01/21 03:26:01;;;;;;;28.55;9.32;;;;;;;3.21;79.58;98951.47;4961162;28;20493;-93
2023/01/21 03:28:29;;;;;;;27.80;8.05;;;;;;;3.31;78.57;98961.53;4945615;28;20034;-93
2023/01/21 03:31:06;;;;;;;12.00;5.72;;;;;;;3.39;77.85;98966.53;4946166;28;20034;-94
2023/01/21 03:33:33;;;;;;;14.13;4.57;;;;;;;3.50;77.70;98969.41;4945311;28;20520;-93
2023/01/21 03:36:00;;;;;;;10.63;3.85;;;;;;;3.41;77.57;98967.09;4942284;29;20062;-93
2023/01/21 03:38:34;;;;;;;13.98;5.00;;;;;;;3.50;78.37;98972.06;4926647;29;20032;-93
2023/01/21 03:41:26;;;;;;;16.17;5.00;;;;;;;3.49;79.03;98970.47;4911299;29;20039;-94
2023/01/21 03:43:52;;;;;;;12.40;4.28;;;;;;;3.38;78.18;98948.13;4942224;29;20035;-94
2023/01/21 03:46:28;;;;;;;16.15;5.55;;;;;;;3.53;77.32;98967.09;4917943;28;20045;-93
2023/01/21 03:48:56;;;;;;;15.90;5.85;;;;;;;3.26;78.99;98947.31;4959716;28;20493;-93
2023/01/21 03:51:31;;;;;;;21.40;6.43;;;;;;;3.02;80.12;98934.81;4938795;28;20042;-93
2023/01/21 03:53:59;;;;;;;19.05;6.80;;;;;;;2.99;80.08;98943.25;4957531;28;20038;-93
2023/01/21 03:56:25;;;;;;;17.10;7.10;;;;;;;3.09;79.08;98934.69;4939674;29;20055;-93
2023/01/21 03:58:51;;;;;;;17.17;7.50;;;;;;;3.19;78.66;98936.78;4922380;29;20044;-93
2023/01/21 04:01:17;;;;;;;19.38;7.55;;;;;;;3.43;78.45;98957.03;4906112;29;20035;-93
2023/01/21 04:03:43;;;;;;;19.25;6.03;;;;;;;3.17;79.99;98941.53;4922823;29;20035;-93
2023/01/21 04:06:16;;;;;;;23.33;6.88;;;;;;;3.20;79.55;98941.88;4902865;29;20057;-91
2023/01/21 04:08:42;;;;;;;17.10;6.85;;;;;;;3.33;80.18;98970.09;4921147;29;20040;-91
2023/01/21 04:11:09;;;;;;;14.10;5.82;;;;;;;3.38;79.52;98966.75;4922084;29;20035;-91
2023/01/21 04:13:37;;;;;;;9.38;4.15;;;;;;;3.47;79.21;98983.19;4907908;29;20042;-90
2023/01/21 04:16:03;;;;;;;5.60;3.08;;;;;;;3.33;78.51;98970.09;4949418;29;20122;-90
2023/01/21 04:18:28;;;;;;;4.10;2.72;;;;;;;3.51;77.91;98987.00;4909563;29;20495;-90
2023/01/21 04:20:55;;;;;;;9.85;3.38;;;;;;;3.42;78.39;98971.41;4926693;29;20031;-94
2023/01/21 04:23:21;;;;;;;9.77;4.05;;;;;;;3.62;78.51;98983.53;4926348;29;20035;-94
2023/01/21 04:25:47;;;;;;;8.55;3.72;;;;;;;3.50;78.07;98978.19;4909611;29;20066;-94
2023/01/21 04:28:15;;;;;;;9.18;3.92;;;;;;;3.59;78.72;98973.34;4927053;29;20141;-94
2023/01/21 04:30:41;;;;;;;13.13;4.47;;;;;;;3.55;78.53;98965.03;4925293;29;20035;-94
2023/01/21 04:33:07;;;;;;;11.80;5.57;;;;;;;3.48;77.91;98956.34;4924869;29;20046;-94
2023/01/21 04:35:36;;;;;;;14.77;5.45;;;;;;;3.58;77.11;98969.06;4921279;29;20035;-93
2023/01/21 04:38:03;;;;;;;9.23;4.80;;;;;;;3.49;77.83;98962.50;4906755;29;20035;-94
2023/01/21 04:40:28;;;;;;;12.00;5.35;;;;;;;3.23;78.67;98977.84;4907265;29;20045;-93
2023/01/21 04:42:54;;;;;;;8.50;4.22;;;;;;;3.14;79.63;99008.50;4891410;29;20039;-94
2023/01/21 04:45:20;;;;;;;9.93;3.17;;;;;;;3.10;79.01;99010.00;4910950;29;20047;-94
2023/01/21 04:47:46;;;;;;;7.55;3.08;;;;;;;2.97;79.18;98990.53;4912582;29;20474;-95
2023/01/21 04:50:13;;;;;;;7.43;3.05;;;;;;;2.99;79.20;98992.97;4922388;29;20047;-93
2023/01/21 04:52:39;;;;;;;12.50;4.15;;;;;;;3.03;79.77;99005.59;4907857;29;20039;-93
2023/01/21 04:55:09;;;;;;;4.93;3.25;;;;;;;2.91;79.88;98988.78;4922264;29;20039;-94
2023/01/21 04:57:35;;;;;;;9.60;3.80;;;;;;;2.86;80.25;98998.47;4929211;29;20070;-94
2023/01/21 05:00:01;;;;;;;6.53;3.53;;;;;;;2.80;80.59;98997.53;4931106;29;20494;-94
2023/01/21 05:02:28;;;;;;;7.70;4.25;;;;;;;2.80;80.77;98994.88;4909831;29;20047;-94
2023/01/21 05:04:54;;;;;;;9.30;4.45;;;;;;;2.80;81.08;98994.88;4932160;29;20044;-95
2023/01/21 05:07:21;;;;;;;8.73;4.35;;;;;;;2.78;81.22;98986.31;4953909;29;20114;-95
2023/01/21 05:09:46;;;;;;;11.50;4.72;;;;;;;2.81;80.93;98972.59;4953256;29;20507;-94
2023/01/21 05:12:12;;;;;;;9.98;4.78;;;;;;;2.73;80.05;98951.63;4890793;29;20047;-95
2023/01/21 05:14:38;;;;;;;13.15;4.20;;;;;;;2.57;79.54;98951.25;4905544;29;20043;-93
2023/01/21 05:17:05;;;;;;;8.02;4.18;;;;;;;2.59;81.03;98959.81;4905377;29;20068;-93
2023/01/21 05:19:31;;;;;;;9.25;4.38;;;;;;;2.57;81.01;98963.72;4906449;29;20438;-95
2023/01/21 05:21:57;;;;;;;12.27;4.38;;;;;;;2.68;80.65;98970.09;4906177;29;20066;-94
2023/01/21 05:24:22;;;;;;;10.27;4.63;;;;;;;2.82;80.32;98990.16;4920941;29;20039;-95
2023/01/21 05:26:48;;;;;;;11.57;4.05;;;;;;;2.93;79.49;98972.63;4906100;29;20036;-95
2023/01/21 05:29:17;;;;;;;6.97;3.88;;;;;;;2.83;79.34;98958.03;4906716;29;20040;-93
2023/01/21 05:31:43;;;;;;;11.05;4.38;;;;;;;3.06;79.13;98976.91;4921255;29;20043;-93
2023/01/21 05:34:11;;;;;;;12.27;4.93;;;;;;;3.03;79.21;98983.50;4905402;29;20043;-94
2023/01/21 05:36:37;;;;;;;10.18;4.85;;;;;;;2.99;78.77;98982.34;4907115;29;20067;-93
2023/01/21 05:39:03;;;;;;;10.70;5.53;;;;;;;3.04;79.22;98988.56;4922582;29;20425;-93
2023/01/21 05:41:29;;;;;;;17.02;6.72;;;;;;;3.12;79.56;98989.31;4906447;29;20123;-93
2023/01/21 05:43:55;;;;;;;14.00;5.15;;;;;;;2.72;80.81;98968.63;4922748;29;20036;-93
2023/01/21 05:46:21;;;;;;;11.23;5.13;;;;;;;2.42;81.57;98953.50;4943801;29;20035;-95
2023/01/21 05:48:46;;;;;;;12.25;4.45;;;;;;;2.53;81.02;98987.31;4917860;29;20044;-94
2023/01/21 05:51:13;;;;;;;12.63;5.32;;;;;;;2.55;82.28;98997.69;4907026;29;20059;-94
2023/01/21 05:53:41;;;;;;;8.90;4.28;;;;;;;2.69;81.30;99006.28;4936846;29;20113;-94
2023/01/21 05:56:06;;;;;;;7.20;4.43;;;;;;;2.79;80.55;98993.28;4935727;29;20062;-94
2023/01/21 05:58:32;;;;;;;12.32;5.50;;;;;;;2.94;79.23;98990.97;4905582;29;20055;-94
2023/01/21 06:00:58;;;;;;;12.30;6.07;;;;;;;2.96;78.38;98978.28;4921083;29;20046;-94
2023/01/21 06:03:25;;;;;;;10.35;5.07;;;;;;;2.66;80.04;99006.72;4905752;29;20039;-94
2023/01/21 06:05:51;;;;;;;10.20;4.63;;;;;;;2.81;78.74;98981.38;4905926;29;20036;-94
2023/01/21 06:08:16;;;;;;;12.25;5.05;;;;;;;2.94;77.98;98985.66;4921497;29;20049;-93
2023/01/21 06:10:42;;;;;;;13.32;5.97;;;;;;;2.80;78.97;98985.06;4919783;29;20050;-94
2023/01/21 06:13:10;;;;;;;11.13;5.40;;;;;;;2.63;80.31;98986.75;4924061;29;20168;-93
2023/01/21 06:15:37;;;;;;;12.40;5.65;;;;;;;2.72;80.03;98984.56;4924830;29;20442;-94
2023/01/21 06:18:06;;;;;;;15.75;8.02;;;;;;;2.71;79.96;98969.66;4924806;29;20039;-94
2023/01/21 06:20:32;;;;;;;28.67;11.48;;;;;;;2.70;80.49;98974.19;4941077;29;20517;-94
2023/01/21 06:22:59;;;;;;;22.83;9.73;;;;;;;2.67;80.53;98990.56;4924822;29;20478;-94
2023/01/21 06:25:25;;;;;;;14.75;7.70;;;;;;;2.46;80.99;98957.34;4925793;28;20031;-93
2023/01/21 06:27:54;;;;;;;15.70;8.63;;;;;;;2.85;79.20;98971.09;4928399;29;20046;-94
2023/01/21 06:30:21;;;;;;;15.10;7.43;;;;;;;2.80;79.60;98976.25;4912720;29;20058;-94
2023/01/21 06:32:47;;;;;;;11.10;6.53;;;;;;;2.73;80.10;98989.66;4913107;29;20039;-95
2023/01/21 06:35:12;;;;;;;13.50;6.90;;;;;;;2.59;80.71;98974.94;4929079;29;20043;-93
2023/01/21 06:37:38;;;;;;;12.13;5.75;;;;;;;2.60;80.16;98982.69;4912333;29;20517;-94
2023/01/21 06:40:04;;;;;;;14.60;7.35;;;;;;;2.70;79.87;98989.28;4928702;29;20039;-94
2023/01/21 06:42:30;;;;;;;15.45;7.38;;;;;;;2.78;80.08;98994.28;4928814;29;20043;-93
2023/01/21 06:44:56;;;;;;;14.32;7.05;;;;;;;2.80;80.87;99014.31;4923041;29;20036;-94
2023/01/21 06:47:23;;;;;;;15.95;7.72;;;;;;;2.55;81.12;99003.84;4894215;29;20039;-94
2023/01/21 06:49:48;;;;;;;28.20;13.68;;;;;;;2.85;80.19;98997.69;4909427;29;20032;-94
2023/01/21 06:52:14;;;;;;;40.65;16.33;;;;;;;3.01;80.16;98986.38;4909726;29;20065;-94
2023/01/21 06:54:42;;;;;;;17.42;8.70;;;;;;;3.24;80.04;98976.81;4909887;29;20048;-93
2023/01/21 06:57:09;;;;;;;16.83;8.80;;;;;;;3.37;80.98;98999.72;4911885;29;20061;-94
2023/01/21 06:59:34;;;;;;;11.15;6.88;;;;;;;3.34;81.55;98993.03;4913497;29;20051;-93
2023/01/21 07:02:00;;;;;;;25.23;11.20;;;;;;;3.47;80.64;98984.00;4912311;29;20035;-93
2023/01/21 07:04:28;;;;;;;14.48;7.45;;;;;;;3.73;79.40;98977.38;4909774;29;20050;-95
2023/01/21 07:06:54;;;;;;;25.13;10.40;;;;;;;4.01;79.34;98975.84;4911159;29;20039;-95
2023/01/21 07:09:19;;;;;;;13.55;7.05;;;;;;;4.37;78.38;98976.53;4909224;29;20047;-95
2023/01/21 07:11:48;;;;;;;5.15;3.22;;;;;;;4.62;76.95;98974.34;4940045;29;20059;-94
2023/01/21 07:14:14;;;;;;;8.50;4.25;;;;;;;4.94;75.27;98979.16;4924463;29;20036;-94
2023/01/21 07:16:39;;;;;;;8.35;3.50;;;;;;;5.19;74.88;98978.78;4908828;29;20040;-93
2023/01/21 07:19:05;;;;;;;7.75;4.13;;;;;;;5.41;74.15;98983.38;4908223;29;20043;-93
2023/01/21 07:21:31;;;;;;;11.68;5.30;;;;;;;5.50;74.40;98973.06;4924455;29;20360;-95
2023/01/21 07:23:59;;;;;;;6.90;3.70;;;;;;;5.74;73.42;98979.03;4924732;29;20130;-95
2023/01/21 07:26:25;;;;;;;4.65;2.50;;;;;;;5.89;73.29;98955.19;4925342;29;20094;-94
2023/01/21 07:28:51;;;;;;;3.65;2.72;;;;;;;6.26;73.46;98975.97;4908137;29;20036;-94
2023/01/21 07:31:18;;;;;;;4.32;2.85;;;;;;;6.39;73.41;98966.75;4907640;29;20044;-95
2023/01/21 07:33:44;;;;;;;5.75;3.13;;;;;;;6.60;72.58;98971.28;4923913;29;20070;-95
2023/01/21 07:36:10;;;;;;;3.83;2.88;;;;;;;6.77;72.85;98957.00;4925008;29;20047;-95
2023/01/21 07:38:37;;;;;;;5.43;2.60;;;;;;;6.92;72.03;98964.34;4922940;29;20032;-95
2023/01/21 07:41:04;;;;;;;2.75;1.63;;;;;;;7.22;71.31;98972.63;4940649;29;20039;-95
2023/01/21 07:43:29;;;;;;;3.50;2.03;;;;;;;7.52;70.46;98973.91;4923849;29;20502;-94
2023/01/21 07:45:55;;;;;;;5.15;1.73;;;;;;;7.58;69.61;98969.38;4907940;29;20047;-93
2023/01/21 07:48:21;;;;;;;2.55;1.45;;;;;;;7.78;69.76;98982.09;4910782;29;20039;-95
2023/01/21 07:50:47;;;;;;;4.20;2.30;;;;;;;7.89;69.33;98959.66;4939622;29;20489;-94
2023/01/21 07:53:13;;;;;;;6.82;3.20;;;;;;;8.13;69.62;98970.72;4922401;29;20047;-94
2023/01/21 07:55:39;;;;;;;12.45;4.13;;;;;;;8.13;69.40;98951.94;4923861;29;20487;-95
2023/01/21 07:58:05;;;;;;;6.88;2.33;;;;;;;8.45;69.00;98981.34;4917535;29;20487;-95
2023/01/21 08:00:31;;;;;;;4.80;1.70;;;;;;;8.47;67.45;98947.00;4920921;29;20116;-95
2023/01/21 08:02:59;;;;;;;16.38;4.05;;;;;;;8.55;67.57;98966.31;4927173;29;20129;-95
2023/01/21 08:05:25;;;;;;;14.05;4.22;;;;;;;8.78;66.93;98984.63;4910867;29;20042;-94
2023/01/21 08:07:51;;;;;;;3.75;1.70;;;;;;;8.81;66.42;98959.94;4912070;29;20091;-95
2023/01/21 08:10:18;;;;;;;3.60;1.70;;;;;;;9.00;66.41;98976.31;4944454;29;20062;-93
2023/01/21 08:12:44;;;;;;;6.30;2.05;;;;;;;9.14;65.69;98973.91;4942419;29;20031;-95
2023/01/21 08:15:10;;;;;;;6.90;1.70;;;;;;;9.29;65.78;98981.16;4907414;29;20566;-92
2023/01/21 08:17:43;;;;;;;1.50;1.05;;;;;;;9.47;65.22;99004.78;4908400;29;20067;-94
2023/01/21 08:20:10;;;;;;;6.97;1.55;;;;;;;9.56;64.55;98991.63;4908582;29;20431;-96
2023/01/21 08:22:36;;;;;;;3.25;1.67;;;;;;;9.51;64.23;98968.25;4893450;29;20043;-94
2023/01/21 08:25:07;;;;;;;4.80;1.90;;;;;;;9.63;64.40;98975.19;4924285;29;20039;-95
2023/01/21 08:27:33;;;;;;;4.88;2.65;;;;;;;9.86;63.51;98988.06;4924070;29;20390;-94
2023/01/21 08:30:00;;;;;;;7.82;1.70;;;;;;;9.97;62.63;98977.28;4939155;29;20032;-94
2023/01/21 08:32:30;;;;;;;4.40;1.23;;;;;;;10.10;61.75;98982.06;4892534;29;20050;-94
2023/01/21 08:34:57;;;;;;;2.78;1.20;;;;;;;10.17;60.72;98973.69;4923337;29;20095;-94
2023/01/21 08:37:23;;;;;;;2.78;1.30;;;;;;;10.33;60.27;98994.09;4907275;29;20074;-95
2023/01/21 08:39:49;;;;;;;7.45;1.70;;;;;;;10.38;61.06;98987.94;4907262;29;20040;-95
2023/01/21 08:42:17;;;;;;;5.85;1.80;;;;;;;10.48;60.52;98985.19;4938366;29;20038;-94
2023/01/21 08:44:44;;;;;;;2.42;1.30;;;;;;;10.69;59.41;98994.75;4923742;29;20035;-93
2023/01/21 08:47:10;;;;;;;5.82;2.75;;;;;;;10.73;59.43;98981.53;4911957;29;20159;-96
2023/01/21 08:49:36;;;;;;;4.18;2.25;;;;;;;10.84;59.59;98980.38;4926992;29;20035;-93
2023/01/21 08:52:02;;;;;;;5.32;1.52;;;;;;;10.98;58.88;98980.56;4927343;29;20046;-94
2023/01/21 08:54:27;;;;;;;4.75;2.80;;;;;;;11.13;59.24;99004.69;4910843;29;20046;-95
2023/01/21 08:56:53;;;;;;;4.22;1.40;;;;;;;11.16;58.29;98999.81;4900149;29;20055;-94
2023/01/21 08:59:26;;;;;;;5.70;1.42;;;;;;;11.35;57.32;98998.06;4898141;29;20051;-94
2023/01/21 09:01:53;;;;;;;2.65;1.63;;;;;;;11.44;57.18;99000.94;4894129;29;20126;-95
2023/01/21 09:04:19;;;;;;;3.08;1.77;;;;;;;11.46;56.77;98993.38;4906368;29;20027;-95
2023/01/21 09:06:44;;;;;;;8.80;3.90;;;;;;;11.71;57.17;99022.00;4907969;29;20066;-94
2023/01/21 09:09:10;;;;;;;4.57;1.42;;;;;;;11.71;56.85;99008.50;4907587;29;20043;-94
2023/01/21 09:11:35;;;;;;;3.85;1.10;;;;;;;11.87;55.62;99009.13;4920783;29;20482;-95
2023/01/21 09:14:03;;;;;;;2.45;1.10;;;;;;;12.09;55.66;99011.38;4906766;29;20491;-95
2023/01/21 09:16:31;;;;;;;3.05;1.10;;;;;;;12.24;55.20;99021.19;4906838;29;20040;-95
2023/01/21 09:18:59;;;;;;;5.28;1.15;;;;;;;12.31;54.33;99010.88;4924474;29;20131;-93
2023/01/21 09:21:25;;;;;;;6.47;1.65;;;;;;;12.37;54.29;98998.09;4923236;29;20131;-95
2023/01/21 09:23:51;;;;;;;4.95;1.98;;;;;;;12.36;54.37;98989.19;4891241;29;20050;-93
2023/01/21 09:26:18;;;;;;;4.35;1.55;;;;;;;12.54;53.32;98998.41;4946804;29;20116;-95
2023/01/21 09:28:46;;;;;;;2.55;1.25;;;;;;;12.47;53.64;98996.06;4922261;29;20095;-94
2023/01/21 09:31:14;;;;;;;2.40;1.52;;;;;;;12.59;53.17;98997.53;4922869;29;20051;-94
2023/01/21 09:33:41;;;;;;;6.32;1.48;;;;;;;12.59;53.22;99001.03;4906560;29;20039;-94
2023/01/21 09:36:07;;;;;;;2.13;1.00;;;;;;;12.64;53.88;98994.78;4907784;29;20035;-95
2023/01/21 09:38:34;;;;;;;4.30;1.77;;;;;;;12.52;53.94;98970.91;4892815;29;20055;-94
2023/01/21 09:41:16;;;;;;;5.90;2.65;;;;;;;12.40;54.70;98963.22;4906834;29;20507;-94
2023/01/21 09:44:06;;;;;;;6.38;1.70;;;;;;;12.35;54.68;98971.41;4923256;29;20066;-94
2023/01/21 09:46:41;;;;;;;6.47;1.20;;;;;;;12.37;53.70;98966.50;4934988;29;20050;-93
2023/01/21 09:49:12;;;;;;;3.75;1.30;;;;;;;12.45;54.00;98965.88;4917345;29;20463;-93
2023/01/21 09:51:56;;;;;;;2.17;1.00;;;;;;;12.59;53.60;98987.53;4930677;29;20374;-93
2023/01/21 09:54:27;;;;;;;3.17;1.35;;;;;;;12.44;54.18;98974.25;4928903;29;20039;-94
2023/01/21 09:57:20;;;;;;;2.13;1.10;;;;;;;12.63;53.32;98983.16;4921121;29;20511;-93
2023/01/21 10:00:14;;;;;;;4.65;1.20;;;;;;;12.67;53.55;98991.47;4957337;29;20454;-94
2023/01/21 10:02:53;;;;;;;8.93;3.70;;;;;;;12.42;54.44;98977.22;4939020;29;20121;-94
2023/01/21 10:05:21;;;;;;;3.97;1.38;;;;;;;12.59;54.10;98975.94;4939383;29;20058;-95
2023/01/21 10:08:05;;;;;;;4.10;1.38;;;;;;;12.54;53.98;98961.41;4941543;29;20134;-95
2023/01/21 10:10:49;;;;;;;1.15;0.85;;;;;;;12.69;53.27;98983.88;4924231;29;20042;-92
2023/01/21 10:13:28;;;;;;;4.72;1.30;;;;;;;12.67;53.62;98978.78;4921893;29;20122;-92
2023/01/21 10:16:36;;;;;;;3.35;1.08;;;;;;;12.53;53.57;98964.38;4942822;29;20118;-92
2023/01/21 10:19:02;;;;;;;2.13;1.10;;;;;;;12.46;53.89;98955.84;4908574;29;20043;-93
2023/01/21 10:21:50;;;;;;;3.63;1.30;;;;;;;12.61;53.71;98971.84;4919896;29;20126;-92
2023/01/21 10:24:21;;;;;;;2.05;1.17;;;;;;;12.52;53.99;98947.38;4940828;29;20058;-92
2023/01/21 10:26:47;;;;;;;1.23;0.90;;;;;;;12.49;54.26;98947.16;4915124;29;20043;-92
2023/01/21 10:29:17;;;;;;;3.33;1.20;;;;;;;12.40;54.46;98948.91;4923291;29;20039;-91
2023/01/21 10:31:45;;;;;;;4.78;1.45;;;;;;;12.60;54.50;98955.94;4916881;29;20066;-94
2023/01/21 10:34:12;;;;;;;5.82;1.58;;;;;;;12.56;54.43;98958.41;4907557;29;20418;-93
2023/01/21 10:36:44;;;;;;;4.28;1.52;;;;;;;12.68;54.57;98974.19;4905402;29;20043;-92
2023/01/21 10:39:16;;;;;;;;;;;;;;;12.70;54.80;98975.50;4938383;29;20040;-94
2023/01/21 10:41:53;;;;;;;6.03;1.70;;;;;;;12.73;55.22;98979.50;4919800;29;19911;-94
2023/01/21 10:44:40;;;;;;;3.72;1.88;;;;;;;12.83;55.20;98979.38;4937312;29;20032;-94
2023/01/21 10:47:33;;;;;;;2.08;1.40;;;;;;;12.91;55.18;98983.31;4929511;29;20039;-94
2023/01/21 10:50:17;;;;;;;4.38;1.40;;;;;;;12.86;55.18;98976.06;4939016;29;20039;-93
2023/01/21 10:53:31;;;;;;;6.25;1.58;;;;;;;12.82;56.38;98979.66;4939396;29;20130;-93
2023/01/21 10:56:33;;;;;;;3.67;1.40;;;;;;;12.77;56.49;98960.84;4934839;28;20048;-94
2023/01/21 10:59:07;;;;;;;11.93;2.13;;;;;;;12.71;56.82;98938.47;4912135;29;20403;-92
2023/01/21 11:01:46;;;;;;;4.30;2.13;;;;;;;12.74;56.48;98954.91;4941220;29;20046;-94
2023/01/21 11:04:18;;;;;;;4.53;2.00;;;;;;;12.65;55.90;98940.44;4941097;29;20104;-93
2023/01/21 11:06:55;;;;;;;7.88;2.40;;;;;;;12.65;56.43;98955.84;4909042;29;20046;-93
2023/01/21 11:09:21;;;;;;;3.30;1.73;;;;;;;12.45;56.36;98938.84;4911441;29;20071;-92
2023/01/21 11:11:47;;;;;;;6.10;2.33;;;;;;;12.44;57.27;98950.75;4906313;28;20059;-94
2023/01/21 11:14:12;;;;;;;10.38;2.80;;;;;;;12.40;57.31;98946.22;4907927;29;20131;-93
2023/01/21 11:16:43;;;;;;;7.80;2.75;;;;;;;12.50;57.45;98956.88;4913194;29;20035;-93
2023/01/21 11:19:25;;;;;;;11.35;3.58;;;;;;;12.39;57.46;98937.31;4927759;29;20043;-93
2023/01/21 11:22:06;;;;;;;5.15;2.95;;;;;;;12.44;57.40;98939.16;4942955;29;20638;-94
2023/01/21 11:24:43;;;;;;;8.00;2.97;;;;;;;12.31;57.55;98927.19;4958862;29;20031;-93
2023/01/21 11:27:32;;;;;;;8.27;2.65;;;;;;;12.43;57.91;98943.75;4924682;29;20770;-94
2023/01/21 11:29:57;;;;;;;5.75;2.90;;;;;;;12.39;58.17;98948.13;4911046;29;20036;-93
2023/01/21 11:32:24;;;;;;;6.13;2.47;;;;;;;12.48;57.53;98937.47;4904456;29;20589;-94
2023/01/21 11:35:15;;;;;;;7.07;2.67;;;;;;;12.61;57.74;98938.63;4922250;29;20044;-93
2023/01/21 11:37:44;;;;;;;13.32;5.18;;;;;;;12.53;57.58;98923.88;4907845;29;20123;-94
2023/01/21 11:40:23;;;;;;;6.43;2.95;;;;;;;12.57;57.80;98930.31;4907940;29;20080;-93
2023/01/21 11:42:50;;;;;;;5.07;2.88;;;;;;;12.62;57.84;98916.75;4908311;29;20039;-93
2023/01/21 11:45:28;;;;;;;9.82;3.95;;;;;;;12.72;57.27;98932.78;4914172;29;20126;-94
2023/01/21 11:47:54;;;;;;;12.02;4.40;;;;;;;12.74;57.29;98917.09;4943855;29;20071;-92
2023/01/21 11:50:33;;;;;;;16.70;5.85;;;;;;;12.76;57.44;98922.19;4923243;29;20129;-94
2023/01/21 11:53:16;;;;;;;11.52;4.05;;;;;;;12.87;57.01;98923.66;4898533;29;20046;-94